sensor_id;sensor_type;location;lat;lon;timestamp;temperature;humidity
16825;DHT22;8529;48.108;-1.706;2023-03-24T00:01:16;11.30;99.90
16825;DHT22;8529;48.108;-1.706;2023-03-24T00:03:48;11.20;99.90
16825;DHT22;8529;48.108;-1.706;2023-03-24T00:06:19;11.20;99.90
16825;DHT22;8529;48.108;-1.706;2023-03-24T00:08:47;11.20;99.90
16825;DHT22;8529;48.108;-1.706;2023-03-24T00:11:18;11.20;99.90
16825;DHT22;8529;48.108;-1.706;2023-03-24T00:13:47;11.20;99.90
16825;DHT22;8529;48.108;-1.706;2023-03-24T00:16:25;11.20;99.90
16825;DHT22;8529;48.108;-1.706;2023-03-24T00:18:59;11.20;99.90
16825;DHT22;8529;48.108;-1.706;2023-03-24T00:21:36;11.10;99.90
16825;DHT22;8529;48.108;-1.706;2023-03-24T00:24:11;11.10;99.90
16825;DHT22;8529;48.108;-1.706;2023-03-24T00:26:46;11.20;99.90
16825;DHT22;8529;48.108;-1.706;2023-03-24T00:29:17;11.10;99.90
16825;DHT22;8529;48.108;-1.706;2023-03-24T00:31:47;11.20;99.90
16825;DHT22;8529;48.108;-1.706;2023-03-24T00:34:18;11.20;99.90
16825;DHT22;8529;48.108;-1.706;2023-03-24T00:36:54;11.10;99.90
16825;DHT22;8529;48.108;-1.706;2023-03-24T00:39:30;11.10;99.90
16825;DHT22;8529;48.108;-1.706;2023-03-24T00:42:01;11.10;99.90
16825;DHT22;8529;48.108;-1.706;2023-03-24T00:44:41;11.10;99.90
16825;DHT22;8529;48.108;-1.706;2023-03-24T00:47:10;11.10;99.90
16825;DHT22;8529;48.108;-1.706;2023-03-24T00:49:42;11.00;99.90
16825;DHT22;8529;48.108;-1.706;2023-03-24T00:52:18;11.00;99.90
16825;DHT22;8529;48.108;-1.706;2023-03-24T00:54:48;11.00;99.90
16825;DHT22;8529;48.108;-1.706;2023-03-24T00:57:24;11.00;99.90
16825;DHT22;8529;48.108;-1.706;2023-03-24T00:59:53;11.00;99.90
16825;DHT22;8529;48.108;-1.706;2023-03-24T01:02:24;11.00;99.90
16825;DHT22;8529;48.108;-1.706;2023-03-24T01:04:58;11.10;99.90
16825;DHT22;8529;48.108;-1.706;2023-03-24T01:07:35;11.10;99.90
16825;DHT22;8529;48.108;-1.706;2023-03-24T01:10:11;11.00;99.90
16825;DHT22;8529;48.108;-1.706;2023-03-24T01:12:38;11.00;99.90
16825;DHT22;8529;48.108;-1.706;2023-03-24T01:15:18;11.00;99.90
16825;DHT22;8529;48.108;-1.706;2023-03-24T01:17:52;11.00;99.90
16825;DHT22;8529;48.108;-1.706;2023-03-24T01:20:24;11.00;99.90
16825;DHT22;8529;48.108;-1.706;2023-03-24T01:22:56;10.90;99.90
16825;DHT22;8529;48.108;-1.706;2023-03-24T01:25:25;11.00;99.90
16825;DHT22;8529;48.108;-1.706;2023-03-24T01:27:54;11.00;99.90
16825;DHT22;8529;48.108;-1.706;2023-03-24T01:30:32;11.00;99.90
16825;DHT22;8529;48.108;-1.706;2023-03-24T01:33:00;11.00;99.90
16825;DHT22;8529;48.108;-1.706;2023-03-24T01:35:41;10.90;99.90
16825;DHT22;8529;48.108;-1.706;2023-03-24T01:38:11;10.90;99.90
16825;DHT22;8529;48.108;-1.706;2023-03-24T01:40:41;10.90;99.90
16825;DHT22;8529;48.108;-1.706;2023-03-24T01:43:16;11.00;99.90
16825;DHT22;8529;48.108;-1.706;2023-03-24T01:45:54;10.90;99.90
16825;DHT22;8529;48.108;-1.706;2023-03-24T01:48:30;10.90;99.90
16825;DHT22;8529;48.108;-1.706;2023-03-24T01:51:07;10.90;99.90
16825;DHT22;8529;48.108;-1.706;2023-03-24T01:53:37;10.90;99.90
16825;DHT22;8529;48.108;-1.706;2023-03-24T01:56:09;10.90;99.90
16825;DHT22;8529;48.108;-1.706;2023-03-24T01:58:39;10.90;99.90
16825;DHT22;8529;48.108;-1.706;2023-03-24T02:01:09;10.90;99.90
16825;DHT22;8529;48.108;-1.706;2023-03-24T02:03:40;10.90;99.90
16825;DHT22;8529;48.108;-1.706;2023-03-24T02:06:18;10.80;99.90
16825;DHT22;8529;48.108;-1.706;2023-03-24T02:08:53;10.80;99.90
16825;DHT22;8529;48.108;-1.706;2023-03-24T02:11:27;10.80;99.90
16825;DHT22;8529;48.108;-1.706;2023-03-24T02:13:59;10.80;99.90
16825;DHT22;8529;48.108;-1.706;2023-03-24T02:16:50;10.80;99.90
16825;DHT22;8529;48.108;-1.706;2023-03-24T02:29:04;10.80;99.90
16825;DHT22;8529;48.108;-1.706;2023-03-24T02:31:56;10.80;99.90
16825;DHT22;8529;48.108;-1.706;2023-03-24T02:38:05;10.80;99.90
16825;DHT22;8529;48.108;-1.706;2023-03-24T02:40:43;10.70;99.90
16825;DHT22;8529;48.108;-1.706;2023-03-24T02:43:36;10.80;99.90
16825;DHT22;8529;48.108;-1.706;2023-03-24T02:46:11;10.80;99.90
16825;DHT22;8529;48.108;-1.706;2023-03-24T02:48:50;10.80;99.90
16825;DHT22;8529;48.108;-1.706;2023-03-24T02:51:32;10.80;99.90
16825;DHT22;8529;48.108;-1.706;2023-03-24T02:54:07;10.80;99.90
16825;DHT22;8529;48.108;-1.706;2023-03-24T02:56:41;10.80;99.90
16825;DHT22;8529;48.108;-1.706;2023-03-24T02:59:15;10.80;99.90
16825;DHT22;8529;48.108;-1.706;2023-03-24T03:01:52;10.80;99.90
16825;DHT22;8529;48.108;-1.706;2023-03-24T03:04:25;10.80;99.90
16825;DHT22;8529;48.108;-1.706;2023-03-24T03:07:01;10.80;99.90
16825;DHT22;8529;48.108;-1.706;2023-03-24T03:09:32;10.80;99.90
16825;DHT22;8529;48.108;-1.706;2023-03-24T03:12:03;10.70;99.90
16825;DHT22;8529;48.108;-1.706;2023-03-24T03:14:50;10.70;99.90
16825;DHT22;8529;48.108;-1.706;2023-03-24T03:17:32;10.70;99.90
16825;DHT22;8529;48.108;-1.706;2023-03-24T03:20:07;10.70;99.90
16825;DHT22;8529;48.108;-1.706;2023-03-24T03:22:44;10.70;99.90
16825;DHT22;8529;48.108;-1.706;2023-03-24T03:25:17;10.80;99.90
16825;DHT22;8529;48.108;-1.706;2023-03-24T03:27:56;10.80;99.90
16825;DHT22;8529;48.108;-1.706;2023-03-24T03:30:29;10.80;99.90
16825;DHT22;8529;48.108;-1.706;2023-03-24T03:33:04;10.80;99.90
16825;DHT22;8529;48.108;-1.706;2023-03-24T03:35:37;10.80;99.90
16825;DHT22;8529;48.108;-1.706;2023-03-24T03:38:12;10.80;99.90
16825;DHT22;8529;48.108;-1.706;2023-03-24T03:40:49;10.80;99.90
16825;DHT22;8529;48.108;-1.706;2023-03-24T03:43:20;10.80;99.90
16825;DHT22;8529;48.108;-1.706;2023-03-24T03:45:52;10.80;99.90
16825;DHT22;8529;48.108;-1.706;2023-03-24T03:48:22;10.90;99.90
16825;DHT22;8529;48.108;-1.706;2023-03-24T03:50:54;10.80;99.90
16825;DHT22;8529;48.108;-1.706;2023-03-24T03:53:25;10.80;99.90
16825;DHT22;8529;48.108;-1.706;2023-03-24T03:55:58;10.80;99.90
16825;DHT22;8529;48.108;-1.706;2023-03-24T03:58:27;10.80;99.90
16825;DHT22;8529;48.108;-1.706;2023-03-24T04:00:56;10.70;99.90
16825;DHT22;8529;48.108;-1.706;2023-03-24T04:03:45;10.70;99.90
16825;DHT22;8529;48.108;-1.706;2023-03-24T04:06:32;10.70;99.90
16825;DHT22;8529;48.108;-1.706;2023-03-24T04:09:20;10.70;99.90
16825;DHT22;8529;48.108;-1.706;2023-03-24T04:12:08;10.70;99.90
16825;DHT22;8529;48.108;-1.706;2023-03-24T04:17:48;10.70;99.90
16825;DHT22;8529;48.108;-1.706;2023-03-24T04:20:20;10.70;99.90
16825;DHT22;8529;48.108;-1.706;2023-03-24T04:23:05;10.70;99.90
16825;DHT22;8529;48.108;-1.706;2023-03-24T04:25:44;10.70;99.90
16825;DHT22;8529;48.108;-1.706;2023-03-24T04:28:27;10.70;99.90
16825;DHT22;8529;48.108;-1.706;2023-03-24T04:31:02;10.70;99.90
16825;DHT22;8529;48.108;-1.706;2023-03-24T04:33:39;10.70;99.90
16825;DHT22;8529;48.108;-1.706;2023-03-24T04:36:17;10.80;99.90
16825;DHT22;8529;48.108;-1.706;2023-03-24T04:38:46;10.80;99.90
16825;DHT22;8529;48.108;-1.706;2023-03-24T04:41:20;10.80;99.90
16825;DHT22;8529;48.108;-1.706;2023-03-24T04:43:53;10.80;99.90
16825;DHT22;8529;48.108;-1.706;2023-03-24T04:46:24;10.80;99.90
16825;DHT22;8529;48.108;-1.706;2023-03-24T04:48:51;10.80;99.90
16825;DHT22;8529;48.108;-1.706;2023-03-24T04:51:30;10.80;99.90
16825;DHT22;8529;48.108;-1.706;2023-03-24T04:54:06;10.80;99.90
16825;DHT22;8529;48.108;-1.706;2023-03-24T04:56:38;10.80;99.90
16825;DHT22;8529;48.108;-1.706;2023-03-24T04:59:08;10.80;99.90
16825;DHT22;8529;48.108;-1.706;2023-03-24T05:01:38;10.70;99.90
16825;DHT22;8529;48.108;-1.706;2023-03-24T05:04:06;10.70;99.90
16825;DHT22;8529;48.108;-1.706;2023-03-24T05:06:36;10.70;99.90
16825;DHT22;8529;48.108;-1.706;2023-03-24T05:09:03;10.70;99.90
16825;DHT22;8529;48.108;-1.706;2023-03-24T05:11:34;10.70;99.90
16825;DHT22;8529;48.108;-1.706;2023-03-24T05:14:03;10.70;99.90
16825;DHT22;8529;48.108;-1.706;2023-03-24T05:16:36;10.70;99.90
16825;DHT22;8529;48.108;-1.706;2023-03-24T05:19:06;10.70;99.90
16825;DHT22;8529;48.108;-1.706;2023-03-24T05:21:38;10.60;99.90
16825;DHT22;8529;48.108;-1.706;2023-03-24T05:24:11;10.60;99.90
16825;DHT22;8529;48.108;-1.706;2023-03-24T05:26:39;10.60;99.90
16825;DHT22;8529;48.108;-1.706;2023-03-24T05:29:06;10.60;99.90
16825;DHT22;8529;48.108;-1.706;2023-03-24T05:31:35;10.60;99.90
16825;DHT22;8529;48.108;-1.706;2023-03-24T05:34:02;10.60;99.90
16825;DHT22;8529;48.108;-1.706;2023-03-24T05:36:39;10.60;99.90
16825;DHT22;8529;48.108;-1.706;2023-03-24T05:39:09;10.60;99.90
16825;DHT22;8529;48.108;-1.706;2023-03-24T05:41:38;10.60;99.90
16825;DHT22;8529;48.108;-1.706;2023-03-24T05:44:05;10.60;99.90
16825;DHT22;8529;48.108;-1.706;2023-03-24T05:46:31;10.60;99.90
16825;DHT22;8529;48.108;-1.706;2023-03-24T05:49:00;10.60;99.90
16825;DHT22;8529;48.108;-1.706;2023-03-24T05:51:29;10.60;99.90
16825;DHT22;8529;48.108;-1.706;2023-03-24T05:54:02;10.60;99.90
16825;DHT22;8529;48.108;-1.706;2023-03-24T05:56:36;10.60;99.90
16825;DHT22;8529;48.108;-1.706;2023-03-24T05:59:05;10.60;99.90
16825;DHT22;8529;48.108;-1.706;2023-03-24T06:01:37;10.60;99.90
16825;DHT22;8529;48.108;-1.706;2023-03-24T06:04:16;10.60;99.90
16825;DHT22;8529;48.108;-1.706;2023-03-24T06:06:48;10.60;99.90
16825;DHT22;8529;48.108;-1.706;2023-03-24T06:09:16;10.60;99.90
16825;DHT22;8529;48.108;-1.706;2023-03-24T06:11:52;10.60;99.90
16825;DHT22;8529;48.108;-1.706;2023-03-24T06:14:20;10.70;99.90
16825;DHT22;8529;48.108;-1.706;2023-03-24T06:16:47;10.70;99.90
16825;DHT22;8529;48.108;-1.706;2023-03-24T06:19:19;10.60;99.90
16825;DHT22;8529;48.108;-1.706;2023-03-24T06:21:51;10.70;99.90
16825;DHT22;8529;48.108;-1.706;2023-03-24T06:24:22;10.70;99.90
16825;DHT22;8529;48.108;-1.706;2023-03-24T06:26:49;10.60;99.90
16825;DHT22;8529;48.108;-1.706;2023-03-24T06:29:19;10.60;99.90
16825;DHT22;8529;48.108;-1.706;2023-03-24T06:31:50;10.60;99.90
16825;DHT22;8529;48.108;-1.706;2023-03-24T06:34:21;10.60;99.90
16825;DHT22;8529;48.108;-1.706;2023-03-24T06:36:51;10.60;99.90
16825;DHT22;8529;48.108;-1.706;2023-03-24T06:39:22;10.70;99.90
16825;DHT22;8529;48.108;-1.706;2023-03-24T06:41:49;10.70;99.90
16825;DHT22;8529;48.108;-1.706;2023-03-24T06:44:16;10.80;99.90
16825;DHT22;8529;48.108;-1.706;2023-03-24T06:46:48;10.80;99.90
16825;DHT22;8529;48.108;-1.706;2023-03-24T06:49:21;10.80;99.90
16825;DHT22;8529;48.108;-1.706;2023-03-24T06:51:50;10.80;99.90
16825;DHT22;8529;48.108;-1.706;2023-03-24T06:54:16;10.90;99.90
16825;DHT22;8529;48.108;-1.706;2023-03-24T06:56:48;10.90;99.90
16825;DHT22;8529;48.108;-1.706;2023-03-24T06:59:16;10.90;99.90
16825;DHT22;8529;48.108;-1.706;2023-03-24T07:01:53;10.90;99.90
16825;DHT22;8529;48.108;-1.706;2023-03-24T07:04:20;10.90;99.90
16825;DHT22;8529;48.108;-1.706;2023-03-24T07:06:54;11.00;99.90
16825;DHT22;8529;48.108;-1.706;2023-03-24T07:09:23;11.00;99.90
16825;DHT22;8529;48.108;-1.706;2023-03-24T07:11:53;11.10;99.90
16825;DHT22;8529;48.108;-1.706;2023-03-24T07:14:27;11.10;99.90
16825;DHT22;8529;48.108;-1.706;2023-03-24T07:16:56;11.20;99.90
16825;DHT22;8529;48.108;-1.706;2023-03-24T07:19:26;11.20;99.90
16825;DHT22;8529;48.108;-1.706;2023-03-24T07:21:53;11.20;99.90
16825;DHT22;8529;48.108;-1.706;2023-03-24T07:24:22;11.20;99.90
16825;DHT22;8529;48.108;-1.706;2023-03-24T07:26:52;11.30;99.90
16825;DHT22;8529;48.108;-1.706;2023-03-24T07:29:19;11.30;99.90
16825;DHT22;8529;48.108;-1.706;2023-03-24T07:31:46;11.30;99.90
16825;DHT22;8529;48.108;-1.706;2023-03-24T07:34:14;11.30;99.90
16825;DHT22;8529;48.108;-1.706;2023-03-24T07:36:45;11.30;99.90
16825;DHT22;8529;48.108;-1.706;2023-03-24T07:39:14;11.40;99.90
16825;DHT22;8529;48.108;-1.706;2023-03-24T07:41:46;11.40;99.90
16825;DHT22;8529;48.108;-1.706;2023-03-24T07:44:21;11.40;99.90
16825;DHT22;8529;48.108;-1.706;2023-03-24T07:46:48;11.50;99.90
16825;DHT22;8529;48.108;-1.706;2023-03-24T07:49:15;11.50;99.90
16825;DHT22;8529;48.108;-1.706;2023-03-24T07:51:43;11.60;99.90
16825;DHT22;8529;48.108;-1.706;2023-03-24T07:54:14;11.60;99.90
16825;DHT22;8529;48.108;-1.706;2023-03-24T07:56:41;11.60;99.90
16825;DHT22;8529;48.108;-1.706;2023-03-24T07:59:12;11.60;99.90
16825;DHT22;8529;48.108;-1.706;2023-03-24T08:01:50;11.60;99.90
16825;DHT22;8529;48.108;-1.706;2023-03-24T08:04:22;11.60;99.90
16825;DHT22;8529;48.108;-1.706;2023-03-24T08:06:51;11.70;99.90
16825;DHT22;8529;48.108;-1.706;2023-03-24T08:09:24;11.70;99.90
16825;DHT22;8529;48.108;-1.706;2023-03-24T08:11:51;11.80;99.90
16825;DHT22;8529;48.108;-1.706;2023-03-24T08:14:21;11.90;99.90
16825;DHT22;8529;48.108;-1.706;2023-03-24T08:16:49;11.90;99.90
16825;DHT22;8529;48.108;-1.706;2023-03-24T08:19:22;11.90;99.90
16825;DHT22;8529;48.108;-1.706;2023-03-24T08:21:58;11.90;99.90
16825;DHT22;8529;48.108;-1.706;2023-03-24T08:24:27;11.90;99.90
16825;DHT22;8529;48.108;-1.706;2023-03-24T08:26:56;11.90;99.90
16825;DHT22;8529;48.108;-1.706;2023-03-24T08:29:27;11.90;99.90
16825;DHT22;8529;48.108;-1.706;2023-03-24T08:31:59;11.90;99.90
16825;DHT22;8529;48.108;-1.706;2023-03-24T08:34:36;11.90;99.90
16825;DHT22;8529;48.108;-1.706;2023-03-24T08:37:04;11.90;99.90
16825;DHT22;8529;48.108;-1.706;2023-03-24T08:39:44;12.00;99.90
16825;DHT22;8529;48.108;-1.706;2023-03-24T08:42:12;12.00;99.90
16825;DHT22;8529;48.108;-1.706;2023-03-24T08:44:38;12.10;99.90
16825;DHT22;8529;48.108;-1.706;2023-03-24T08:47:09;12.10;99.90
16825;DHT22;8529;48.108;-1.706;2023-03-24T08:49:39;12.10;99.90
16825;DHT22;8529;48.108;-1.706;2023-03-24T08:52:07;12.20;99.90
16825;DHT22;8529;48.108;-1.706;2023-03-24T08:54:37;12.20;99.90
16825;DHT22;8529;48.108;-1.706;2023-03-24T08:57:04;12.20;99.90
16825;DHT22;8529;48.108;-1.706;2023-03-24T08:59:33;12.30;99.90
16825;DHT22;8529;48.108;-1.706;2023-03-24T09:02:04;12.20;99.90
16825;DHT22;8529;48.108;-1.706;2023-03-24T09:04:35;12.20;99.90
16825;DHT22;8529;48.108;-1.706;2023-03-24T09:07:03;12.30;99.90
16825;DHT22;8529;48.108;-1.706;2023-03-24T09:09:36;12.30;99.90
16825;DHT22;8529;48.108;-1.706;2023-03-24T09:12:07;12.30;99.90
16825;DHT22;8529;48.108;-1.706;2023-03-24T09:14:34;12.40;99.90
16825;DHT22;8529;48.108;-1.706;2023-03-24T09:17:01;12.40;99.90
16825;DHT22;8529;48.108;-1.706;2023-03-24T09:19:30;12.50;99.90
16825;DHT22;8529;48.108;-1.706;2023-03-24T09:22:07;12.50;99.90
16825;DHT22;8529;48.108;-1.706;2023-03-24T09:24:37;12.50;99.90
16825;DHT22;8529;48.108;-1.706;2023-03-24T09:27:07;12.60;99.90
16825;DHT22;8529;48.108;-1.706;2023-03-24T09:29:34;12.70;99.90
16825;DHT22;8529;48.108;-1.706;2023-03-24T09:32:01;12.80;99.90
16825;DHT22;8529;48.108;-1.706;2023-03-24T09:34:27;12.80;99.90
16825;DHT22;8529;48.108;-1.706;2023-03-24T09:36:55;13.00;99.90
16825;DHT22;8529;48.108;-1.706;2023-03-24T09:39:24;13.00;99.90
16825;DHT22;8529;48.108;-1.706;2023-03-24T09:41:54;13.10;99.90
16825;DHT22;8529;48.108;-1.706;2023-03-24T09:44:28;13.10;99.90
16825;DHT22;8529;48.108;-1.706;2023-03-24T09:47:03;13.10;99.90
16825;DHT22;8529;48.108;-1.706;2023-03-24T09:49:37;13.10;99.90
16825;DHT22;8529;48.108;-1.706;2023-03-24T09:52:14;13.00;99.90
16825;DHT22;8529;48.108;-1.706;2023-03-24T09:54:55;13.00;99.90
16825;DHT22;8529;48.108;-1.706;2023-03-24T09:57:31;13.00;99.90
16825;DHT22;8529;48.108;-1.706;2023-03-24T10:00:15;13.00;99.90
16825;DHT22;8529;48.108;-1.706;2023-03-24T10:02:43;13.00;99.90
16825;DHT22;8529;48.108;-1.706;2023-03-24T10:05:14;13.10;99.90
16825;DHT22;8529;48.108;-1.706;2023-03-24T10:07:49;13.10;99.90
16825;DHT22;8529;48.108;-1.706;2023-03-24T10:10:32;13.10;99.90
16825;DHT22;8529;48.108;-1.706;2023-03-24T10:13:06;13.10;99.90
16825;DHT22;8529;48.108;-1.706;2023-03-24T10:15:35;13.00;99.90
16825;DHT22;8529;48.108;-1.706;2023-03-24T10:18:28;12.90;99.90
16825;DHT22;8529;48.108;-1.706;2023-03-24T10:21:01;12.90;99.90
16825;DHT22;8529;48.108;-1.706;2023-03-24T10:23:39;13.00;99.90
16825;DHT22;8529;48.108;-1.706;2023-03-24T10:26:21;13.10;99.90
16825;DHT22;8529;48.108;-1.706;2023-03-24T10:28:50;13.20;99.90
16825;DHT22;8529;48.108;-1.706;2023-03-24T10:31:27;13.20;99.90
16825;DHT22;8529;48.108;-1.706;2023-03-24T10:33:55;13.30;99.90
16825;DHT22;8529;48.108;-1.706;2023-03-24T10:36:26;13.30;99.90
16825;DHT22;8529;48.108;-1.706;2023-03-24T10:38:54;13.20;99.90
16825;DHT22;8529;48.108;-1.706;2023-03-24T10:41:30;13.10;99.90
16825;DHT22;8529;48.108;-1.706;2023-03-24T10:43:58;13.00;99.90
16825;DHT22;8529;48.108;-1.706;2023-03-24T10:46:27;12.90;99.90
16825;DHT22;8529;48.108;-1.706;2023-03-24T10:49:13;12.70;99.90
16825;DHT22;8529;48.108;-1.706;2023-03-24T10:51:44;12.60;99.90
16825;DHT22;8529;48.108;-1.706;2023-03-24T10:54:21;12.60;99.90
16825;DHT22;8529;48.108;-1.706;2023-03-24T10:57:04;12.40;99.90
16825;DHT22;8529;48.108;-1.706;2023-03-24T10:59:38;12.30;99.90
16825;DHT22;8529;48.108;-1.706;2023-03-24T11:02:20;12.30;99.90
16825;DHT22;8529;48.108;-1.706;2023-03-24T11:04:54;12.50;99.90
16825;DHT22;8529;48.108;-1.706;2023-03-24T11:07:31;12.70;99.90
16825;DHT22;8529;48.108;-1.706;2023-03-24T11:10:03;12.80;99.90
16825;DHT22;8529;48.108;-1.706;2023-03-24T11:12:35;12.80;99.90
16825;DHT22;8529;48.108;-1.706;2023-03-24T11:15:23;12.90;99.90
16825;DHT22;8529;48.108;-1.706;2023-03-24T11:17:56;13.00;99.90
16825;DHT22;8529;48.108;-1.706;2023-03-24T11:20:30;13.10;99.90
16825;DHT22;8529;48.108;-1.706;2023-03-24T11:23:00;13.20;99.90
16825;DHT22;8529;48.108;-1.706;2023-03-24T11:25:32;13.30;99.90
16825;DHT22;8529;48.108;-1.706;2023-03-24T11:28:08;13.40;99.90
16825;DHT22;8529;48.108;-1.706;2023-03-24T11:30:45;13.50;99.90
16825;DHT22;8529;48.108;-1.706;2023-03-24T11:33:17;13.60;99.90
16825;DHT22;8529;48.108;-1.706;2023-03-24T11:35:51;13.70;99.90
16825;DHT22;8529;48.108;-1.706;2023-03-24T11:38:28;13.70;99.90
16825;DHT22;8529;48.108;-1.706;2023-03-24T11:40:58;13.80;99.90
16825;DHT22;8529;48.108;-1.706;2023-03-24T11:43:34;13.80;99.90
16825;DHT22;8529;48.108;-1.706;2023-03-24T11:46:07;13.80;99.90
16825;DHT22;8529;48.108;-1.706;2023-03-24T11:48:39;13.70;99.90
16825;DHT22;8529;48.108;-1.706;2023-03-24T11:51:14;13.70;99.90
16825;DHT22;8529;48.108;-1.706;2023-03-24T11:53:46;13.60;99.90
16825;DHT22;8529;48.108;-1.706;2023-03-24T11:56:18;13.60;99.90
16825;DHT22;8529;48.108;-1.706;2023-03-24T11:58:51;13.60;99.90
16825;DHT22;8529;48.108;-1.706;2023-03-24T12:01:27;13.60;99.90
16825;DHT22;8529;48.108;-1.706;2023-03-24T12:04:11;13.70;99.90
16825;DHT22;8529;48.108;-1.706;2023-03-24T12:06:55;13.60;99.90
16825;DHT22;8529;48.108;-1.706;2023-03-24T12:09:31;13.50;99.90
16825;DHT22;8529;48.108;-1.706;2023-03-24T12:12:14;13.50;99.90
16825;DHT22;8529;48.108;-1.706;2023-03-24T12:21:01;13.40;99.90
16825;DHT22;8529;48.108;-1.706;2023-03-24T12:23:38;13.30;99.90
16825;DHT22;8529;48.108;-1.706;2023-03-24T12:26:20;13.30;99.90
16825;DHT22;8529;48.108;-1.706;2023-03-24T12:29:20;13.20;99.90
16825;DHT22;8529;48.108;-1.706;2023-03-24T12:32:12;13.10;99.90
16825;DHT22;8529;48.108;-1.706;2023-03-24T12:35:00;12.90;99.90
16825;DHT22;8529;48.108;-1.706;2023-03-24T12:37:42;12.80;99.90
16825;DHT22;8529;48.108;-1.706;2023-03-24T12:40:42;12.90;99.90
16825;DHT22;8529;48.108;-1.706;2023-03-24T12:43:29;13.00;99.90
16825;DHT22;8529;48.108;-1.706;2023-03-24T12:46:09;13.10;99.90
16825;DHT22;8529;48.108;-1.706;2023-03-24T12:48:59;13.30;99.90
16825;DHT22;8529;48.108;-1.706;2023-03-24T12:51:41;13.30;99.90
16825;DHT22;8529;48.108;-1.706;2023-03-24T12:54:21;13.40;99.90
16825;DHT22;8529;48.108;-1.706;2023-03-24T12:56:55;13.50;99.90
16825;DHT22;8529;48.108;-1.706;2023-03-24T12:59:29;13.50;99.90
16825;DHT22;8529;48.108;-1.706;2023-03-24T13:02:11;13.60;99.90
16825;DHT22;8529;48.108;-1.706;2023-03-24T13:04:47;13.60;99.90
16825;DHT22;8529;48.108;-1.706;2023-03-24T13:07:20;13.60;99.90
16825;DHT22;8529;48.108;-1.706;2023-03-24T13:09:53;13.60;99.90
16825;DHT22;8529;48.108;-1.706;2023-03-24T13:12:22;13.70;99.90
16825;DHT22;8529;48.108;-1.706;2023-03-24T13:15:01;13.80;99.90
16825;DHT22;8529;48.108;-1.706;2023-03-24T13:17:32;13.80;99.90
16825;DHT22;8529;48.108;-1.706;2023-03-24T13:20:04;13.80;99.90
16825;DHT22;8529;48.108;-1.706;2023-03-24T13:22:33;13.80;99.90
16825;DHT22;8529;48.108;-1.706;2023-03-24T13:25:03;13.70;99.90
16825;DHT22;8529;48.108;-1.706;2023-03-24T13:27:35;13.70;99.90
16825;DHT22;8529;48.108;-1.706;2023-03-24T13:30:25;13.60;99.90
16825;DHT22;8529;48.108;-1.706;2023-03-24T13:32:58;13.60;99.90
16825;DHT22;8529;48.108;-1.706;2023-03-24T13:35:39;13.60;99.90
16825;DHT22;8529;48.108;-1.706;2023-03-24T13:38:15;13.60;99.90
16825;DHT22;8529;48.108;-1.706;2023-03-24T13:40:53;13.60;99.90
16825;DHT22;8529;48.108;-1.706;2023-03-24T13:43:26;13.70;99.90
16825;DHT22;8529;48.108;-1.706;2023-03-24T13:46:01;13.60;99.90
16825;DHT22;8529;48.108;-1.706;2023-03-24T13:48:34;13.60;99.90
16825;DHT22;8529;48.108;-1.706;2023-03-24T13:51:15;13.40;99.90
16825;DHT22;8529;48.108;-1.706;2023-03-24T13:53:53;13.20;99.90
16825;DHT22;8529;48.108;-1.706;2023-03-24T13:56:30;13.00;99.90
16825;DHT22;8529;48.108;-1.706;2023-03-24T13:59:26;12.80;99.90
16825;DHT22;8529;48.108;-1.706;2023-03-24T14:02:44;12.70;99.90
16825;DHT22;8529;48.108;-1.706;2023-03-24T14:05:30;12.70;99.90
16825;DHT22;8529;48.108;-1.706;2023-03-24T14:08:16;12.70;99.90
16825;DHT22;8529;48.108;-1.706;2023-03-24T14:10:47;12.60;99.90
16825;DHT22;8529;48.108;-1.706;2023-03-24T14:13:34;12.70;99.90
16825;DHT22;8529;48.108;-1.706;2023-03-24T14:16:33;12.60;99.90
16825;DHT22;8529;48.108;-1.706;2023-03-24T14:19:23;12.50;99.90
16825;DHT22;8529;48.108;-1.706;2023-03-24T14:21:56;12.30;99.90
16825;DHT22;8529;48.108;-1.706;2023-03-24T14:24:28;12.10;99.90
16825;DHT22;8529;48.108;-1.706;2023-03-24T14:26:57;12.00;99.90
16825;DHT22;8529;48.108;-1.706;2023-03-24T14:29:46;12.00;99.90
16825;DHT22;8529;48.108;-1.706;2023-03-24T14:32:17;12.10;99.90
16825;DHT22;8529;48.108;-1.706;2023-03-24T14:34:55;12.30;99.90
16825;DHT22;8529;48.108;-1.706;2023-03-24T14:37:24;12.40;99.90
16825;DHT22;8529;48.108;-1.706;2023-03-24T14:40:00;12.50;99.90
16825;DHT22;8529;48.108;-1.706;2023-03-24T14:42:53;12.50;99.90
16825;DHT22;8529;48.108;-1.706;2023-03-24T14:45:53;12.30;99.90
16825;DHT22;8529;48.108;-1.706;2023-03-24T14:48:33;12.10;99.90
16825;DHT22;8529;48.108;-1.706;2023-03-24T14:51:08;11.90;99.90
16825;DHT22;8529;48.108;-1.706;2023-03-24T14:53:40;11.90;99.90
16825;DHT22;8529;48.108;-1.706;2023-03-24T14:56:13;11.90;99.90
16825;DHT22;8529;48.108;-1.706;2023-03-24T14:58:47;11.70;99.90
16825;DHT22;8529;48.108;-1.706;2023-03-24T15:01:16;11.70;99.90
16825;DHT22;8529;48.108;-1.706;2023-03-24T15:03:51;11.60;99.90
16825;DHT22;8529;48.108;-1.706;2023-03-24T15:06:22;11.60;99.90
16825;DHT22;8529;48.108;-1.706;2023-03-24T15:08:50;11.70;99.90
16825;DHT22;8529;48.108;-1.706;2023-03-24T15:11:22;11.70;99.90
16825;DHT22;8529;48.108;-1.706;2023-03-24T15:13:55;11.80;99.90
16825;DHT22;8529;48.108;-1.706;2023-03-24T15:16:27;11.90;99.90
16825;DHT22;8529;48.108;-1.706;2023-03-24T15:18:57;11.90;99.90
16825;DHT22;8529;48.108;-1.706;2023-03-24T15:21:31;11.80;99.90
16825;DHT22;8529;48.108;-1.706;2023-03-24T15:24:01;11.80;99.90
16825;DHT22;8529;48.108;-1.706;2023-03-24T15:26:30;11.90;99.90
16825;DHT22;8529;48.108;-1.706;2023-03-24T15:29:00;12.00;99.90
16825;DHT22;8529;48.108;-1.706;2023-03-24T15:31:27;12.00;99.90
16825;DHT22;8529;48.108;-1.706;2023-03-24T15:36:45;12.00;99.90
16825;DHT22;8529;48.108;-1.706;2023-03-24T15:39:17;12.10;99.90
16825;DHT22;8529;48.108;-1.706;2023-03-24T15:41:46;12.20;99.90
16825;DHT22;8529;48.108;-1.706;2023-03-24T15:44:25;12.30;99.90
16825;DHT22;8529;48.108;-1.706;2023-03-24T15:47:09;12.30;99.90
16825;DHT22;8529;48.108;-1.706;2023-03-24T15:49:46;12.40;99.90
16825;DHT22;8529;48.108;-1.706;2023-03-24T15:52:34;12.40;99.90
16825;DHT22;8529;48.108;-1.706;2023-03-24T15:55:08;12.80;99.90
16825;DHT22;8529;48.108;-1.706;2023-03-24T15:57:43;12.80;99.90
16825;DHT22;8529;48.108;-1.706;2023-03-24T16:00:17;12.70;99.90
16825;DHT22;8529;48.108;-1.706;2023-03-24T16:02:50;12.60;99.90
16825;DHT22;8529;48.108;-1.706;2023-03-24T16:05:21;12.50;99.90
16825;DHT22;8529;48.108;-1.706;2023-03-24T16:07:56;12.40;99.90
16825;DHT22;8529;48.108;-1.706;2023-03-24T16:10:33;12.30;99.90
16825;DHT22;8529;48.108;-1.706;2023-03-24T16:13:21;12.30;99.90
16825;DHT22;8529;48.108;-1.706;2023-03-24T16:15:55;12.30;99.90
16825;DHT22;8529;48.108;-1.706;2023-03-24T16:18:35;12.30;99.90
16825;DHT22;8529;48.108;-1.706;2023-03-24T16:21:11;12.30;99.90
16825;DHT22;8529;48.108;-1.706;2023-03-24T16:23:39;12.30;99.90
16825;DHT22;8529;48.108;-1.706;2023-03-24T16:26:09;12.30;99.90
16825;DHT22;8529;48.108;-1.706;2023-03-24T16:28:39;12.30;99.90
16825;DHT22;8529;48.108;-1.706;2023-03-24T16:31:19;12.30;99.90
16825;DHT22;8529;48.108;-1.706;2023-03-24T16:33:48;12.20;99.90
16825;DHT22;8529;48.108;-1.706;2023-03-24T16:36:22;12.30;99.90
16825;DHT22;8529;48.108;-1.706;2023-03-24T16:38:52;12.50;99.90